Time;durP1;ratioP1;P1;durP2;ratioP2;P2;SDS_P1;SDS_P2;PMS_P1;PMS_P2;Temp;Humidity;BMP_temperature;BMP_pressure;BME280_temperature;BME280_humidity;BME280_pressure;Samples;Min_cycle;Max_cycle;Signal;HPM_P1;HPM_P2
2022/04/15 00:02:39;;;;;;;17.30;13.07;;;17.40;67.60;;;;;;10980894;32;20320;-72
2022/04/15 00:08:41;;;;;;;12.75;7.75;;;17.20;68.10;;;;;;10966604;32;20019;-72
2022/04/15 00:14:44;;;;;;;19.92;13.23;;;17.10;67.90;;;;;;10982612;32;20019;-72
2022/04/15 00:20:46;;;;;;;14.68;9.93;;;17.00;68.30;;;;;;10984308;32;20022;-72
2022/04/15 00:26:48;;;;;;;14.18;11.40;;;17.00;67.90;;;;;;10968795;32;20395;-72
2022/04/15 00:32:50;;;;;;;10.02;7.72;;;17.00;67.50;;;;;;10983614;32;20018;-73
2022/04/15 00:38:52;;;;;;;9.90;7.30;;;17.00;67.30;;;;;;10967235;32;20018;-72
2022/04/15 00:44:59;;;;;;;7.40;6.00;;;16.80;67.70;;;;;;10983216;32;20484;-72
2022/04/15 00:51:01;;;;;;;13.02;9.00;;;16.70;68.10;;;;;;10982938;32;20023;-72
2022/04/15 00:57:03;;;;;;;13.93;7.82;;;16.70;68.90;;;;;;10982729;32;20088;-72
2022/04/15 01:03:06;;;;;;;11.27;6.53;;;16.70;67.80;;;;;;10978728;32;20030;-72
2022/04/15 01:09:12;;;;;;;8.07;5.78;;;16.60;67.50;;;;;;10978020;32;20026;-72
2022/04/15 01:15:15;;;;;;;9.52;7.18;;;16.50;67.90;;;;;;10979174;27;20099;-72
2022/04/15 01:21:18;;;;;;;10.07;5.10;;;16.50;68.50;;;;;;10968172;32;20019;-72
2022/04/15 01:27:27;;;;;;;9.43;6.22;;;16.20;68.80;;;;;;10981479;32;20045;-72
2022/04/15 01:33:29;;;;;;;9.57;7.90;;;16.10;68.90;;;;;;10981537;32;20022;-72
2022/04/15 01:39:34;;;;;;;9.15;6.18;;;16.10;69.10;;;;;;10981216;32;20023;-72
2022/04/15 01:45:36;;;;;;;9.40;5.40;;;16.00;69.20;;;;;;10967725;32;20026;-72
2022/04/15 01:51:38;;;;;;;7.93;5.70;;;15.90;69.40;;;;;;10980998;32;20307;-72
2022/04/15 01:57:40;;;;;;;12.85;5.62;;;15.90;69.30;;;;;;10981033;32;20403;-72
2022/04/15 02:03:42;;;;;;;13.25;8.95;;;15.80;69.40;;;;;;10980728;32;20045;-72
2022/04/15 02:09:45;;;;;;;6.95;4.35;;;15.60;69.80;;;;;;10980362;32;20031;-72
2022/04/15 02:15:47;;;;;;;9.05;6.85;;;15.70;69.90;;;;;;10980434;32;20052;-72
2022/04/15 02:21:49;;;;;;;9.02;6.25;;;15.70;69.90;;;;;;10980413;32;20049;-72
2022/04/15 02:27:52;;;;;;;13.73;9.27;;;15.70;70.40;;;;;;10978310;32;20026;-72
2022/04/15 02:33:54;;;;;;;12.05;6.53;;;15.60;70.50;;;;;;10965507;32;20383;-72
2022/04/15 02:39:56;;;;;;;8.40;6.70;;;15.50;70.40;;;;;;10984581;32;20015;-72
2022/04/15 02:45:59;;;;;;;13.02;9.90;;;15.30;70.40;;;;;;10987299;32;20023;-72
2022/04/15 02:52:01;;;;;;;8.68;7.05;;;15.30;70.20;;;;;;10983096;32;20041;-72
2022/04/15 02:58:03;;;;;;;8.75;6.68;;;15.30;70.10;;;;;;10984517;32;20050;-72
2022/04/15 03:04:06;;;;;;;8.25;4.95;;;15.20;70.30;;;;;;10981934;32;20022;-72
2022/04/15 03:10:09;;;;;;;10.27;6.60;;;14.90;70.60;;;;;;10983879;32;20361;-72
2022/04/15 03:16:11;;;;;;;10.35;5.60;;;14.70;71.20;;;;;;10982643;32;20011;-72
2022/04/15 03:22:16;;;;;;;11.93;9.35;;;14.60;71.90;;;;;;10983472;32;20076;-72
2022/04/15 03:28:44;;;;;;;12.98;7.68;;;14.90;72.70;;;;;;10984831;32;20068;-72
2022/04/15 03:34:47;;;;;;;13.60;9.27;;;15.10;71.90;;;;;;10981900;32;20050;-72
2022/04/15 03:40:49;;;;;;;12.95;6.87;;;14.90;71.60;;;;;;10984984;32;20403;-72
2022/04/15 03:46:51;;;;;;;10.90;8.65;;;14.80;71.30;;;;;;10968437;32;20433;-72
2022/04/15 03:52:54;;;;;;;15.27;11.30;;;15.00;72.00;;;;;;10981599;32;20374;-72
2022/04/15 03:58:56;;;;;;;10.55;7.53;;;14.90;71.60;;;;;;10979736;32;20014;-72
2022/04/15 04:04:58;;;;;;;6.50;5.55;;;14.80;71.00;;;;;;10983850;32;20053;-72
2022/04/15 04:11:00;;;;;;;14.65;10.85;;;14.70;70.70;;;;;;10983857;32;20022;-72
2022/04/15 04:17:06;;;;;;;12.18;7.57;;;14.50;70.60;;;;;;10983426;32;20391;-72
2022/04/15 04:23:09;;;;;;;10.52;7.43;;;14.60;70.70;;;;;;10982686;32;20022;-72
2022/04/15 04:29:11;;;;;;;14.13;11.32;;;14.50;70.40;;;;;;10980867;32;20046;-72
2022/04/15 04:35:13;;;;;;;13.73;9.77;;;14.40;70.60;;;;;;10981522;32;20050;-72
2022/04/15 04:41:15;;;;;;;11.95;9.07;;;14.50;71.40;;;;;;10980675;32;20018;-72
2022/04/15 04:47:21;;;;;;;9.10;6.80;;;14.40;71.30;;;;;;10981930;32;20394;-73
2022/04/15 04:53:23;;;;;;;17.45;11.23;;;14.10;71.80;;;;;;10977858;32;20077;-73
2022/04/15 04:59:28;;;;;;;13.85;10.38;;;14.20;71.90;;;;;;10981190;32;20026;-73
2022/04/15 05:05:30;;;;;;;10.07;8.32;;;14.30;71.90;;;;;;10978624;32;20014;-73
2022/04/15 05:11:32;;;;;;;10.02;7.62;;;14.30;71.80;;;;;;10978022;32;20026;-73
2022/04/15 05:17:34;;;;;;;9.93;8.52;;;14.30;71.60;;;;;;10977007;32;20054;-73
2022/04/15 05:23:36;;;;;;;8.95;6.68;;;14.30;71.80;;;;;;10968486;32;20023;-73
2022/04/15 05:29:39;;;;;;;11.05;8.50;;;14.30;71.80;;;;;;10939183;32;20050;-73
2022/04/15 05:35:41;;;;;;;9.63;6.68;;;14.40;71.80;;;;;;10948190;32;20030;-73
2022/04/15 05:41:45;;;;;;;9.63;6.78;;;14.40;72.00;;;;;;10980402;32;20395;-73
2022/04/15 05:47:48;;;;;;;11.32;7.68;;;14.60;71.90;;;;;;10976446;32;20053;-73
2022/04/15 05:53:50;;;;;;;13.95;10.27;;;14.80;72.00;;;;;;10980504;32;20027;-73
2022/04/15 05:59:52;;;;;;;18.73;11.38;;;15.00;72.20;;;;;;10980297;32;20018;-73
2022/04/15 06:05:54;;;;;;;14.35;12.32;;;15.20;72.10;;;;;;10977002;32;20438;-73
2022/04/15 06:11:56;;;;;;;9.75;7.32;;;15.30;72.50;;;;;;10982256;32;20041;-73
2022/04/15 06:17:59;;;;;;;15.43;12.40;;;15.50;72.30;;;;;;10979804;32;20042;-73
2022/04/15 06:24:22;;;;;;;17.50;13.25;;;15.60;72.60;;;;;;10949588;32;20030;-73
2022/04/15 06:30:24;;;;;;;12.52;9.23;;;15.80;72.40;;;;;;10949319;32;20077;-73
2022/04/15 06:36:26;;;;;;;10.20;8.93;;;15.90;72.10;;;;;;10946034;32;20334;-73
2022/04/15 06:42:30;;;;;;;10.70;6.85;;;16.00;72.10;;;;;;10945264;32;20049;-73
2022/04/15 06:48:32;;;;;;;12.25;8.52;;;16.00;72.20;;;;;;10930792;32;20053;-73
2022/04/15 06:54:34;;;;;;;11.32;7.78;;;16.10;72.00;;;;;;10947886;32;20476;-73
2022/04/15 07:00:36;;;;;;;9.30;7.05;;;16.20;71.80;;;;;;10946349;32;20027;-73
2022/04/15 07:06:38;;;;;;;9.07;6.55;;;16.40;71.70;;;;;;10947555;32;20034;-73
2022/04/15 07:12:43;;;;;;;9.25;8.10;;;16.60;71.50;;;;;;10944096;32;20026;-73
2022/04/15 07:18:45;;;;;;;11.02;7.22;;;16.70;71.20;;;;;;10947101;32;20054;-73
2022/04/15 07:24:49;;;;;;;8.25;5.80;;;16.80;70.90;;;;;;10947319;32;20023;-73
2022/04/15 07:30:51;;;;;;;7.05;5.35;;;16.80;70.90;;;;;;10942835;32;20031;-73
2022/04/15 07:36:57;;;;;;;12.35;6.40;;;16.70;70.70;;;;;;10942781;32;20030;-73
2022/04/15 07:42:59;;;;;;;8.57;5.80;;;16.80;70.20;;;;;;10944775;32;20027;-73
2022/04/15 07:49:01;;;;;;;6.18;4.62;;;16.80;70.10;;;;;;10957188;32;20023;-73
2022/04/15 07:55:31;;;;;;;6.60;4.03;;;16.90;69.80;;;;;;10984026;32;20034;-73
2022/04/15 08:01:33;;;;;;;5.40;4.40;;;17.00;69.60;;;;;;10984030;32;20018;-73
2022/04/15 08:07:35;;;;;;;8.00;4.32;;;17.00;69.30;;;;;;10982533;32;20034;-73
2022/04/15 08:13:37;;;;;;;5.53;3.30;;;17.10;69.00;;;;;;10981185;32;20023;-73
2022/04/15 08:19:40;;;;;;;10.02;7.28;;;17.00;67.60;;;;;;10978786;32;20291;-73
2022/04/15 08:26:05;;;;;;;9.07;5.95;;;17.20;67.90;;;;;;10982678;32;20378;-73
2022/04/15 08:32:08;;;;;;;5.53;3.40;;;17.30;67.30;;;;;;10982147;32;20023;-73
2022/04/15 08:38:11;;;;;;;8.77;5.20;;;17.50;66.90;;;;;;10982737;32;20338;-73
2022/04/15 08:44:14;;;;;;;6.28;4.25;;;17.70;65.10;;;;;;10952083;32;20039;-73
2022/04/15 08:50:16;;;;;;;7.62;4.65;;;17.70;63.10;;;;;;10945552;32;20015;-73
2022/04/15 08:56:19;;;;;;;5.70;3.08;;;17.80;62.90;;;;;;10943438;32;20050;-73
2022/04/15 09:02:47;;;;;;;4.18;2.60;;;17.80;61.20;;;;;;10943687;32;20308;-73
2022/04/15 09:09:01;;;;;;;5.53;3.58;;;17.90;61.40;;;;;;10954548;32;20030;-75
2022/04/15 09:18:32;;;;;;;4.45;2.75;;;18.00;62.00;;;;;;10613164;32;12777721;-73
2022/04/15 09:24:37;;;;;;;6.85;4.35;;;18.10;60.80;;;;;;11007320;32;20085;-75
2022/04/15 09:30:40;;;;;;;6.20;3.15;;;18.30;60.00;;;;;;11006869;32;20057;-75
2022/04/15 09:36:44;;;;;;;3.83;2.80;;;18.40;59.30;;;;;;10989032;32;20077;-75
2022/04/15 09:43:19;;;;;;;5.03;2.40;;;18.50;58.50;;;;;;11008856;32;20050;-75
2022/04/15 09:49:25;;;;;;;5.05;2.25;;;18.70;57.80;;;;;;11009686;32;20468;-75
2022/04/15 09:55:27;;;;;;;7.43;2.42;;;18.80;57.70;;;;;;11011240;32;20057;-75
2022/04/15 10:01:32;;;;;;;4.85;3.10;;;19.00;58.00;;;;;;11006795;32;20395;-75
2022/04/15 10:07:35;;;;;;;3.95;2.60;;;19.20;56.70;;;;;;11010833;32;20153;-75
2022/04/15 10:13:39;;;;;;;4.37;3.00;;;19.40;56.40;;;;;;11010512;32;20440;-75
2022/04/15 10:19:43;;;;;;;3.85;2.47;;;19.60;56.80;;;;;;11010498;32;20031;-75
2022/04/15 10:25:46;;;;;;;4.35;2.05;;;19.90;55.40;;;;;;11001145;32;20018;-75
2022/04/15 10:31:48;;;;;;;3.67;2.85;;;19.90;55.20;;;;;;10980326;32;20030;-75
2022/04/15 10:38:13;;;;;;;2.85;1.85;;;20.20;56.80;;;;;;10984014;32;20042;-72
2022/04/15 10:44:25;;;;;;;6.47;2.87;;;20.40;55.70;;;;;;10982788;32;20030;-72
2022/04/15 10:51:19;;;;;;;9.00;3.47;;;20.60;55.40;;;;;;10985071;32;20319;-72
2022/04/15 10:57:29;;;;;;;9.23;3.35;;;20.80;54.50;;;;;;10959218;32;20065;-72
2022/04/15 11:03:32;;;;;;;5.75;3.28;;;20.90;53.40;;;;;;10984821;32;20058;-72
2022/04/15 11:09:34;;;;;;;6.75;2.37;;;21.10;53.40;;;;;;11009063;32;20019;-72
2022/04/15 11:15:55;;;;;;;4.93;2.45;;;21.40;52.30;;;;;;11020046;32;20398;-72
2022/04/15 11:22:00;;;;;;;4.82;2.97;;;21.60;51.90;;;;;;11021842;32;20027;-72
2022/04/15 11:28:06;;;;;;;3.20;2.30;;;21.90;51.70;;;;;;11021219;32;20040;-72
2022/04/15 11:34:08;;;;;;;2.20;1.27;;;22.20;49.80;;;;;;11018413;32;20311;-72
2022/04/15 11:40:12;;;;;;;1.98;1.52;;;22.50;49.70;;;;;;11019860;32;20026;-72
2022/04/15 11:46:14;;;;;;;5.03;2.05;;;22.80;49.70;;;;;;11006793;32;20066;-72
2022/04/15 11:52:25;;;;;;;7.12;3.70;;;23.00;49.80;;;;;;10981696;32;20045;-72
2022/04/15 11:58:52;;;;;;;4.45;1.90;;;23.30;49.50;;;;;;10978215;32;20027;-72
2022/04/15 12:04:57;;;;;;;4.68;3.10;;;23.20;49.80;;;;;;10980334;32;20026;-72
2022/04/15 12:10:59;;;;;;;3.30;2.15;;;23.20;49.20;;;;;;10981984;32;20023;-72
2022/04/15 12:17:02;;;;;;;4.80;2.42;;;23.30;49.80;;;;;;10981728;32;20045;-72
2022/04/15 12:23:05;;;;;;;1.98;1.45;;;23.30;49.80;;;;;;10978151;32;20031;-72
2022/04/15 12:35:57;;;;;;;3.12;2.30;;;23.80;48.90;;;;;;10825650;32;20058;-72
2022/04/15 12:41:59;;;;;;;4.03;2.35;;;23.90;48.30;;;;;;10825658;32;20046;-73
2022/04/15 12:48:07;;;;;;;4.72;2.92;;;23.90;49.20;;;;;;10848560;32;20043;-72
2022/04/15 12:54:10;;;;;;;4.68;2.58;;;23.80;48.70;;;;;;10861994;32;20027;-72
2022/04/15 13:00:13;;;;;;;5.60;2.58;;;23.90;48.50;;;;;;10858975;32;20094;-70
2022/04/15 13:06:15;;;;;;;5.22;2.95;;;23.90;47.90;;;;;;10859252;32;20035;-70
2022/04/15 13:12:20;;;;;;;3.00;1.30;;;23.80;48.40;;;;;;10979116;32;20030;-71
2022/04/15 13:18:22;;;;;;;7.05;2.58;;;23.80;48.20;;;;;;10992469;32;20058;-71
2022/04/15 13:24:25;;;;;;;3.80;2.05;;;24.00;47.20;;;;;;10978087;32;20378;-71
2022/04/15 13:30:52;;;;;;;2.47;1.37;;;24.20;47.10;;;;;;10913605;32;20062;-71
2022/04/15 13:36:54;;;;;;;2.75;1.65;;;24.40;46.30;;;;;;10919837;32;20046;-71
2022/04/15 13:42:56;;;;;;;4.25;1.55;;;24.60;46.50;;;;;;10904485;32;20579;-71
2022/04/15 13:48:59;;;;;;;2.22;1.50;;;24.70;46.70;;;;;;10927122;32;20035;-71
2022/04/15 14:01:39;;;;;;;2.67;1.48;;;24.80;45.70;;;;;;10790559;33;20478;-71
2022/04/15 14:07:43;;;;;;;1.80;1.10;;;24.90;45.70;;;;;;10834795;32;20083;-71
2022/04/15 14:13:46;;;;;;;2.45;1.83;;;24.90;45.60;;;;;;10844405;32;20040;-72
2022/04/15 14:19:48;;;;;;;7.47;2.20;;;25.00;45.20;;;;;;10848862;32;20067;-71
2022/04/15 14:25:51;;;;;;;4.65;2.37;;;25.20;44.90;;;;;;10833775;32;20399;-70
2022/04/15 14:31:53;;;;;;;2.58;1.73;;;25.10;46.20;;;;;;10828928;32;20345;-71
2022/04/15 14:37:56;;;;;;;5.50;2.55;;;25.20;45.60;;;;;;10966924;32;20432;-70
2022/04/15 14:43:59;;;;;;;2.90;1.85;;;25.40;45.70;;;;;;10983317;32;20035;-71
2022/04/15 14:50:05;;;;;;;2.75;1.95;;;25.30;45.80;;;;;;10978470;32;20068;-71
2022/04/15 14:56:07;;;;;;;6.57;3.10;;;25.50;45.60;;;;;;10967857;32;20387;-70
2022/04/15 15:02:09;;;;;;;2.50;1.90;;;25.50;45.70;;;;;;10981845;32;20022;-70
2022/04/15 15:08:11;;;;;;;3.50;1.40;;;25.50;45.60;;;;;;10978260;32;20031;-70
2022/04/15 15:14:13;;;;;;;4.10;1.42;;;25.60;45.60;;;;;;10989096;32;20026;-71
2022/04/15 15:20:14;;;;;;;1.90;1.10;;;25.80;45.50;;;;;;10980617;32;20049;-71
2022/04/15 15:32:37;;;;;;;2.33;1.67;;;25.80;46.00;;;;;;10974707;32;20068;-71
2022/04/15 15:38:43;;;;;;;1.42;1.00;;;26.00;46.00;;;;;;10980837;32;20046;-71
2022/04/15 15:44:45;;;;;;;2.75;1.20;;;26.00;44.90;;;;;;10980656;32;20023;-70
2022/04/15 15:50:50;;;;;;;5.43;2.17;;;26.30;45.40;;;;;;10980894;32;20031;-71
2022/04/15 15:57:10;;;;;;;2.65;1.37;;;26.50;44.30;;;;;;10976723;32;20066;-71
2022/04/15 16:03:13;;;;;;;2.67;1.42;;;26.60;44.40;;;;;;10998669;32;20476;-70
2022/04/15 16:09:16;;;;;;;3.12;1.23;;;27.00;43.60;;;;;;11017478;32;20053;-70
2022/04/15 16:15:18;;;;;;;1.55;1.30;;;27.40;43.40;;;;;;10987149;32;20027;-70
2022/04/15 16:21:20;;;;;;;2.50;1.45;;;27.60;43.70;;;;;;10978815;32;20035;-70
2022/04/15 16:27:22;;;;;;;2.22;0.90;;;27.50;44.00;;;;;;10978873;32;20050;-70
2022/04/15 16:33:24;;;;;;;0.95;0.85;;;27.60;43.30;;;;;;10978795;32;20331;-70
2022/04/15 16:39:26;;;;;;;4.03;1.08;;;28.10;42.00;;;;;;10978861;32;20069;-70
2022/04/15 16:45:28;;;;;;;3.70;1.65;;;28.00;41.80;;;;;;10964577;32;20379;-70
2022/04/15 16:51:31;;;;;;;4.43;1.00;;;27.30;43.80;;;;;;10978279;32;20026;-70
2022/04/15 17:04:34;;;;;;;3.05;1.42;;;26.20;46.40;;;;;;10977884;32;20338;-70
2022/04/15 17:10:42;;;;;;;4.03;1.15;;;25.90;46.70;;;;;;10962526;32;20026;-69
2022/04/15 17:17:02;;;;;;;2.85;1.35;;;25.40;47.50;;;;;;11010490;26;20338;-69
2022/04/15 17:23:04;;;;;;;1.95;1.25;;;24.90;48.70;;;;;;10994175;32;20398;-69
2022/04/15 17:29:06;;;;;;;3.45;1.00;;;24.60;49.50;;;;;;10977538;32;20338;-70
2022/04/15 17:35:08;;;;;;;3.15;1.30;;;24.20;50.10;;;;;;10974530;32;20052;-69
2022/04/15 17:41:10;;;;;;;1.75;1.10;;;24.00;50.30;;;;;;10981460;32;20061;-70
2022/04/15 17:47:13;;;;;;;1.48;1.00;;;23.80;50.90;;;;;;10978453;32;20074;-70
2022/04/15 17:53:35;;;;;;;5.50;3.15;;;23.60;52.00;;;;;;10981084;32;20387;-69
2022/04/15 17:59:37;;;;;;;2.20;1.17;;;23.40;52.40;;;;;;10983098;32;20050;-70
2022/04/15 18:05:40;;;;;;;1.15;0.55;;;23.20;52.90;;;;;;10979933;32;20038;-70
2022/04/15 18:11:43;;;;;;;2.70;1.40;;;22.90;53.40;;;;;;10979836;32;20086;-70
2022/04/15 18:17:47;;;;;;;3.60;1.90;;;22.70;53.90;;;;;;10985112;32;20104;-71
2022/04/15 18:23:49;;;;;;;21.40;3.67;;;22.70;54.60;;;;;;10985594;32;20330;-71
2022/04/15 18:29:52;;;;;;;5.72;2.53;;;22.50;54.80;;;;;;10984525;32;20057;-70
2022/04/15 18:35:54;;;;;;;3.00;1.83;;;22.40;55.60;;;;;;10983252;32;20065;-70
2022/04/15 18:41:56;;;;;;;2.85;1.90;;;22.30;55.80;;;;;;10983600;32;20403;-70
2022/04/15 18:52:34;;;;;;;8.40;3.05;;;22.20;56.50;;;;;;10983154;32;20026;-70
2022/04/15 18:54:20;;;;;;;27.65;5.85;;;22.10;56.70;;;;;;10983755;32;20027;-70
2022/04/15 19:00:23;;;;;;;5.80;3.30;;;21.80;56.80;;;;;;10983567;32;20081;-70
2022/04/15 19:06:25;;;;;;;6.55;3.60;;;21.80;57.30;;;;;;10980990;32;20078;-70
2022/04/15 19:12:28;;;;;;;7.37;2.90;;;21.70;57.50;;;;;;10979936;32;20035;-70
2022/04/15 19:18:57;;;;;;;5.03;2.80;;;21.50;57.80;;;;;;10878799;32;20047;-70
2022/04/15 19:24:59;;;;;;;7.25;2.67;;;21.30;58.00;;;;;;10867684;32;20094;-70
2022/04/15 19:31:03;;;;;;;6.68;3.47;;;21.20;58.30;;;;;;10877851;32;20157;-70
2022/04/15 19:37:05;;;;;;;5.85;2.80;;;21.20;58.50;;;;;;10902438;32;20034;-70
2022/04/15 19:43:09;;;;;;;4.15;2.67;;;21.30;58.60;;;;;;10903130;32;20187;-70
2022/04/15 19:49:11;;;;;;;5.37;3.10;;;21.00;58.90;;;;;;10953150;32;20035;-69
2022/04/15 19:55:16;;;;;;;3.58;2.85;;;20.90;59.10;;;;;;10980005;32;20031;-69
2022/04/15 20:01:19;;;;;;;7.50;3.65;;;20.80;59.50;;;;;;10980262;32;20064;-70
2022/04/15 20:07:21;;;;;;;6.03;3.08;;;20.70;59.80;;;;;;10977820;32;20019;-70
2022/04/15 20:13:24;;;;;;;5.03;3.42;;;20.80;59.20;;;;;;10977949;32;20023;-70
2022/04/15 20:19:26;;;;;;;3.60;2.95;;;20.80;59.40;;;;;;10980923;32;20023;-70
2022/04/15 20:25:29;;;;;;;5.35;3.55;;;20.70;59.80;;;;;;10982422;32;20026;-69
2022/04/15 20:31:33;;;;;;;5.95;3.28;;;20.60;60.10;;;;;;10980502;32;20034;-70
2022/04/15 20:37:37;;;;;;;5.18;3.60;;;20.60;60.30;;;;;;10979016;32;20375;-70
2022/04/15 20:43:40;;;;;;;6.20;4.18;;;20.50;60.40;;;;;;10980049;32;20049;-69
2022/04/15 20:49:59;;;;;;;5.90;4.00;;;20.40;60.60;;;;;;10979786;32;20026;-70
2022/04/15 20:56:28;;;;;;;7.37;4.87;;;20.30;61.00;;;;;;10975216;32;20022;-70
2022/04/15 21:02:31;;;;;;;5.57;4.62;;;20.40;61.10;;;;;;10979513;32;20069;-70
2022/04/15 21:08:33;;;;;;;8.82;5.12;;;20.40;60.60;;;;;;10979317;32;20383;-70
2022/04/15 21:14:39;;;;;;;11.52;5.15;;;20.30;60.70;;;;;;10974938;32;20386;-70
2022/04/15 21:20:41;;;;;;;7.82;5.57;;;20.10;61.10;;;;;;10979236;32;20022;-70
2022/04/15 21:26:43;;;;;;;9.57;5.72;;;20.00;61.40;;;;;;10979135;32;20062;-70
2022/04/15 21:32:46;;;;;;;7.80;5.30;;;20.10;61.10;;;;;;10978876;32;20108;-70
2022/04/15 21:38:49;;;;;;;7.40;5.25;;;20.00;61.20;;;;;;10978842;32;20030;-70
2022/04/15 21:44:51;;;;;;;9.20;4.68;;;19.80;61.70;;;;;;10978778;32;20027;-70
2022/04/15 21:57:14;;;;;;;7.15;4.68;;;19.30;62.90;;;;;;10978601;32;20027;-70
2022/04/15 22:03:18;;;;;;;9.63;4.93;;;19.40;63.00;;;;;;10978390;32;20049;-69
2022/04/15 22:09:20;;;;;;;7.50;5.20;;;19.50;63.10;;;;;;10978268;32;20427;-69
2022/04/15 22:15:22;;;;;;;8.00;5.62;;;19.50;63.50;;;;;;10975893;32;20065;-69
2022/04/15 22:21:25;;;;;;;7.03;5.25;;;19.50;64.00;;;;;;10979598;32;20057;-70
2022/04/15 22:27:27;;;;;;;11.02;5.90;;;19.40;63.80;;;;;;10982399;32;20049;-70
2022/04/15 22:33:29;;;;;;;8.75;5.65;;;19.20;64.10;;;;;;10982354;32;20045;-70
2022/04/15 22:39:32;;;;;;;10.52;7.37;;;19.20;64.30;;;;;;10980786;32;20019;-69
2022/04/15 22:45:34;;;;;;;8.70;6.70;;;19.10;64.10;;;;;;10980354;32;20300;-69
2022/04/15 22:51:37;;;;;;;10.35;7.70;;;19.00;64.20;;;;;;10982322;32;20319;-70
2022/04/15 22:57:39;;;;;;;7.87;5.43;;;18.80;64.40;;;;;;10981574;32;20031;-70
2022/04/15 23:03:42;;;;;;;10.07;7.20;;;18.80;64.60;;;;;;10982146;32;20049;-70
2022/04/15 23:09:44;;;;;;;8.70;5.95;;;18.80;65.10;;;;;;10983545;32;20018;-70
2022/04/15 23:15:46;;;;;;;9.02;6.15;;;18.80;65.10;;;;;;10983172;32;20296;-70
2022/04/15 23:21:52;;;;;;;10.10;6.68;;;18.80;65.20;;;;;;10980730;32;20053;-69
2022/04/15 23:27:57;;;;;;;8.10;6.22;;;18.70;65.60;;;;;;10982791;32;20018;-70
2022/04/15 23:33:59;;;;;;;6.40;5.47;;;18.50;65.70;;;;;;10982413;32;20026;-70
2022/04/15 23:40:01;;;;;;;11.55;5.72;;;18.30;66.00;;;;;;10982317;32;20030;-69
2022/04/15 23:52:24;;;;;;;7.60;5.87;;;18.30;66.10;;;;;;10981989;32;20362;-70
2022/04/15 23:58:27;;;;;;;8.02;5.28;;;18.30;66.20;;;;;;10981469;32;20034;-70
